createdAt,value
2019-05-14T00:00:52.944Z,1038.6711
2019-05-14T00:02:04.010Z,1038.6451
2019-05-14T00:03:03.228Z,1038.6368
2019-05-14T00:04:03.434Z,1038.6057
2019-05-14T00:05:02.686Z,1038.6254
2019-05-14T00:05:14.524Z,1038.6533
2019-05-14T00:06:13.742Z,1038.6485
2019-05-14T00:07:12.953Z,1038.6534
2019-05-14T00:08:24.004Z,1038.5701
2019-05-14T00:09:23.241Z,1038.5487
2019-05-14T00:10:34.348Z,1038.4443
2019-05-14T00:11:33.547Z,1038.4378
2019-05-14T00:12:32.806Z,1038.4526
2019-05-14T00:12:44.643Z,1038.415
2019-05-14T00:13:43.848Z,1038.4233
2019-05-14T00:14:43.926Z,1038.384
2019-05-14T00:15:43.266Z,1038.4069
2019-05-14T00:16:54.308Z,1038.4135
2019-05-14T00:17:53.507Z,1038.3808
2019-05-14T00:18:53.738Z,1038.4216
2019-05-14T00:20:06.207Z,1038.42
2019-05-14T00:20:53.212Z,1038.4251
2019-05-14T00:22:04.257Z,1038.4398
2019-05-14T00:23:03.481Z,1038.4218
2019-05-14T00:24:03.668Z,1038.4627
2019-05-14T00:25:02.906Z,1038.3726
2019-05-14T00:26:14.082Z,1038.425
2019-05-14T00:27:13.274Z,1038.3792
2019-05-14T00:28:24.313Z,1038.3332
2019-05-14T00:29:23.516Z,1038.394
2019-05-14T00:30:22.747Z,1038.3579
2019-05-14T00:30:34.585Z,1038.3824
2019-05-14T00:31:33.805Z,1038.3596
2019-05-14T00:32:33.009Z,1038.3709
2019-05-14T00:33:44.065Z,1038.3874
2019-05-14T00:34:43.284Z,1038.4201
2019-05-14T00:35:54.359Z,1038.3447
2019-05-14T00:36:42.773Z,1038.3986
2019-05-14T00:36:54.621Z,1038.4005
2019-05-14T00:37:53.820Z,1038.3594
2019-05-14T00:38:53.018Z,1038.361
2019-05-14T00:40:04.056Z,1038.3363
2019-05-14T00:41:03.289Z,1038.3133
2019-05-14T00:42:14.353Z,1038.3262
2019-05-14T00:43:13.542Z,1038.29
2019-05-14T00:44:13.479Z,1038.3702
2019-05-14T00:44:24.592Z,1038.3012
2019-05-14T00:45:23.786Z,1038.3767
2019-05-14T00:46:23.123Z,1038.3796
2019-05-14T00:47:34.178Z,1038.383
2019-05-14T00:48:33.378Z,1038.3878
2019-05-14T00:49:44.427Z,1038.3895
2019-05-14T00:50:43.714Z,1038.3961
2019-05-14T00:51:42.898Z,1038.4074
2019-05-14T00:52:53.926Z,1038.3861
2019-05-14T00:53:53.124Z,1038.3255
2019-05-14T00:55:04.161Z,1038.3321
2019-05-14T00:56:03.402Z,1038.3156
2019-05-14T00:57:02.608Z,1038.3453
2019-05-14T00:57:14.453Z,1038.3238
2019-05-14T00:58:13.693Z,1038.3208
2019-05-14T00:59:12.902Z,1038.3026
2019-05-14T01:00:23.963Z,1038.2731
2019-05-14T01:01:23.198Z,1038.1995
2019-05-14T01:02:34.298Z,1038.2062
2019-05-14T01:03:33.548Z,1038.2094
2019-05-14T01:04:32.762Z,1038.1948
2019-05-14T01:04:44.619Z,1038.2242
2019-05-14T01:05:43.831Z,1038.1818
2019-05-14T01:06:43.023Z,1038.1752
2019-05-14T01:07:54.089Z,1038.175
2019-05-14T01:08:53.317Z,1038.18
2019-05-14T01:10:04.365Z,1038.1619
2019-05-14T01:11:03.578Z,1038.1833
2019-05-14T01:12:02.769Z,1038.2144
2019-05-14T01:12:14.608Z,1038.2587
2019-05-14T01:13:13.930Z,1038.1964
2019-05-14T01:14:13.138Z,1038.2045
2019-05-14T01:15:24.173Z,1038.2258
2019-05-14T01:16:23.386Z,1038.2109
2019-05-14T01:17:34.467Z,1038.2763
2019-05-14T01:18:33.664Z,1038.2813
2019-05-14T01:19:32.868Z,1038.3007
2019-05-14T01:19:44.710Z,1038.2941
2019-05-14T01:21:44.092Z,1038.2465
2019-05-14T01:22:43.359Z,1038.2498
2019-05-14T01:23:54.392Z,1038.2543
2019-05-14T01:24:53.589Z,1038.2462
2019-05-14T01:25:52.815Z,1038.2298
2019-05-14T01:26:04.662Z,1038.2183
2019-05-14T01:27:03.857Z,1038.269
2019-05-14T01:28:03.085Z,1038.2656
2019-05-14T01:29:14.121Z,1038.2523
2019-05-14T01:30:13.298Z,1038.2438
2019-05-14T01:31:24.322Z,1038.2811
2019-05-14T01:32:23.548Z,1038.2642
2019-05-14T01:33:22.806Z,1038.3116
2019-05-14T01:33:34.656Z,1038.2819
2019-05-14T01:34:33.862Z,1038.2817
2019-05-14T01:35:33.062Z,1038.3027
2019-05-14T01:36:44.098Z,1038.3333
2019-05-14T01:37:43.341Z,1038.299
2019-05-14T01:38:54.401Z,1038.3428
2019-05-14T01:39:53.615Z,1038.3037
2019-05-14T01:40:52.840Z,1038.302
2019-05-14T01:41:04.674Z,1038.3018
2019-05-14T01:42:03.910Z,1038.3167
2019-05-14T01:43:03.139Z,1038.3448
2019-05-14T01:44:14.200Z,1038.2907
2019-05-14T01:45:23.745Z,1038.273
2019-05-14T01:46:13.618Z,1038.2648
2019-05-14T01:47:12.913Z,1038.2303
2019-05-14T01:47:24.688Z,1038.2484
2019-05-14T01:48:23.885Z,1038.2158
2019-05-14T01:49:23.114Z,1038.2337
2019-05-14T01:50:34.154Z,1038.1993
2019-05-14T01:51:33.372Z,1038.2304
2019-05-14T01:52:44.414Z,1038.232
2019-05-14T01:53:43.649Z,1038.2303
2019-05-14T01:54:42.950Z,1038.1812
2019-05-14T01:55:53.954Z,1038.2465
2019-05-14T01:56:54.144Z,1038.2266
2019-05-14T01:57:53.362Z,1038.1988
2019-05-14T01:59:04.420Z,1038.2559
2019-05-14T02:00:03.662Z,1038.2626
2019-05-14T02:01:02.910Z,1038.2542
2019-05-14T02:02:13.971Z,1038.2559
2019-05-14T02:03:13.186Z,1038.2922
2019-05-14T02:04:24.235Z,1038.251
2019-05-14T02:05:23.493Z,1038.2872
2019-05-14T02:06:22.700Z,1038.2347
2019-05-14T02:06:34.539Z,1038.2169
2019-05-14T02:07:33.738Z,1038.2202
2019-05-14T02:08:32.955Z,1038.1906
2019-05-14T02:09:43.988Z,1038.2132
2019-05-14T02:10:43.247Z,1038.2131
2019-05-14T02:11:54.281Z,1038.216
2019-05-14T02:12:53.501Z,1038.1815
2019-05-14T02:13:52.716Z,1038.1882
2019-05-14T02:14:04.557Z,1038.1538
2019-05-14T02:15:03.751Z,1038.1126
2019-05-14T02:16:03.064Z,1038.139
2019-05-14T02:17:14.113Z,1038.0848
2019-05-14T02:18:13.293Z,1038.1567
2019-05-14T02:19:24.335Z,1038.1564
2019-05-14T02:20:23.529Z,1038.0632
2019-05-14T02:21:22.977Z,1038.1008
2019-05-14T02:21:34.615Z,1038.0845
2019-05-14T02:22:33.816Z,1038.0845
2019-05-14T02:23:33.032Z,1038.1041
2019-05-14T02:24:44.157Z,1038.0604
2019-05-14T02:25:43.377Z,1038.0803
2019-05-14T02:26:42.722Z,1038.0804
2019-05-14T02:26:54.442Z,1038.0574
2019-05-14T02:27:53.638Z,1038.0528
2019-05-14T02:28:52.824Z,1038.0483
2019-05-14T02:29:04.668Z,1037.9942
2019-05-14T02:30:03.882Z,1037.9781
2019-05-14T02:31:03.986Z,1037.9862
2019-05-14T02:32:03.254Z,1037.9239
2019-05-14T02:33:03.442Z,1037.8912
2019-05-14T02:34:02.637Z,1037.8809
2019-05-14T02:34:14.477Z,1037.8925
2019-05-14T02:35:13.682Z,1037.8514
2019-05-14T02:36:12.957Z,1037.827
2019-05-14T02:37:23.987Z,1037.7894
2019-05-14T02:38:23.193Z,1037.7844
2019-05-14T02:39:34.244Z,1037.7648
2019-05-14T02:40:33.453Z,1037.7667
2019-05-14T02:41:32.693Z,1037.7438
2019-05-14T02:41:44.531Z,1037.7423
2019-05-14T02:42:43.740Z,1037.7459
2019-05-14T02:43:42.962Z,1037.7296
2019-05-14T02:44:54.005Z,1037.7445
2019-05-14T02:46:05.782Z,1037.7285
2019-05-14T02:46:53.387Z,1037.7811
2019-05-14T02:47:52.647Z,1037.791
2019-05-14T02:48:04.484Z,1037.8073
2019-05-14T02:49:03.715Z,1037.8402
2019-05-14T02:50:02.930Z,1037.842
2019-05-14T02:51:13.984Z,1037.847
2019-05-14T02:52:13.198Z,1037.8227
2019-05-14T02:53:24.358Z,1037.7963
2019-05-14T02:54:23.550Z,1037.7635
2019-05-14T02:55:22.766Z,1037.788
2019-05-14T02:55:34.595Z,1037.7751
2019-05-14T02:56:33.783Z,1037.7994
2019-05-14T02:57:32.988Z,1037.7995
2019-05-14T02:58:44.066Z,1037.7746
2019-05-14T02:59:43.269Z,1037.8087
2019-05-14T03:00:54.335Z,1037.8364
2019-05-14T03:01:53.579Z,1037.8609
2019-05-14T03:02:52.761Z,1037.905
2019-05-14T03:03:04.610Z,1037.9312
2019-05-14T03:04:03.821Z,1037.9063
2019-05-14T03:05:03.070Z,1037.9047
2019-05-14T03:06:14.124Z,1037.8968
2019-05-14T03:07:13.320Z,1037.8576
2019-05-14T03:08:24.362Z,1037.833
2019-05-14T03:09:23.612Z,1037.7823
2019-05-14T03:10:22.810Z,1037.7562
2019-05-14T03:10:34.647Z,1037.7739
2019-05-14T03:11:33.853Z,1037.7757
2019-05-14T03:12:33.049Z,1037.7265
2019-05-14T03:13:44.096Z,1037.7559
2019-05-14T03:14:43.363Z,1037.72
2019-05-14T03:15:54.406Z,1037.6809
2019-05-14T03:16:42.744Z,1037.681
2019-05-14T03:16:54.566Z,1037.653
2019-05-14T03:17:53.743Z,1037.6566
2019-05-14T03:18:52.947Z,1037.6158
2019-05-14T03:20:04.016Z,1037.619
2019-05-14T03:21:03.257Z,1037.6142
2019-05-14T03:22:14.309Z,1037.5883
2019-05-14T03:23:17.722Z,1037.6292
2019-05-14T03:24:13.943Z,1037.6457
2019-05-14T03:25:13.207Z,1037.6832
2019-05-14T03:26:13.423Z,1037.706
2019-05-14T03:27:13.619Z,1037.6962
2019-05-14T03:28:12.807Z,1037.6618
2019-05-14T03:28:24.636Z,1037.6452
2019-05-14T03:29:26.059Z,1037.6207
2019-05-14T03:30:24.087Z,1037.6124
2019-05-14T03:31:23.314Z,1037.6319
2019-05-14T03:32:34.348Z,1037.6512
2019-05-14T03:33:34.304Z,1037.6136
2019-05-14T03:34:33.953Z,1037.5791
2019-05-14T03:35:41.971Z,1037.5858
2019-05-14T03:36:34.956Z,1037.5269
2019-05-14T03:37:33.296Z,1037.5137
2019-05-14T03:38:44.329Z,1037.5252
2019-05-14T03:39:43.503Z,1037.5008
2019-05-14T03:40:42.752Z,1037.4876
2019-05-14T03:40:54.600Z,1037.4681
2019-05-14T03:41:53.772Z,1037.4434
2019-05-14T03:42:53.981Z,1037.4484
2019-05-14T03:43:53.174Z,1037.4254
2019-05-14T03:45:04.207Z,1037.3812
2019-05-14T03:46:03.435Z,1037.4566
2019-05-14T03:47:05.120Z,1037.4437
2019-05-14T03:48:02.784Z,1037.4091
2019-05-14T03:48:14.619Z,1037.4501
2019-05-14T03:49:13.828Z,1037.3848
2019-05-14T03:50:14.032Z,1037.4129
2019-05-14T03:51:13.376Z,1037.4079
2019-05-14T03:52:24.418Z,1037.3818
2019-05-14T03:53:23.640Z,1037.4116
2019-05-14T03:54:22.821Z,1037.3774
2019-05-14T03:54:34.673Z,1037.3773
2019-05-14T03:55:33.907Z,1037.3675
2019-05-14T03:56:33.153Z,1037.3201
2019-05-14T03:57:44.192Z,1037.3221
2019-05-14T03:58:43.430Z,1037.2974
2019-05-14T03:59:42.693Z,1037.2993
2019-05-14T03:59:54.458Z,1037.3139
2019-05-14T04:00:53.749Z,1037.3176
2019-05-14T04:01:53.959Z,1037.298
2019-05-14T04:02:53.160Z,1037.3587
2019-05-14T04:04:04.220Z,1037.2834
2019-05-14T04:05:03.391Z,1037.3145
2019-05-14T04:06:02.616Z,1037.3145
2019-05-14T04:06:14.451Z,1037.2504
2019-05-14T04:07:13.643Z,1037.3178
2019-05-14T04:08:12.863Z,1037.3438
2019-05-14T04:09:23.965Z,1037.3046
2019-05-14T04:10:23.187Z,1037.3244
2019-05-14T04:11:34.301Z,1037.3112
2019-05-14T04:12:33.508Z,1037.298
2019-05-14T04:13:32.719Z,1037.2884
2019-05-14T04:13:44.564Z,1037.2738
2019-05-14T04:14:43.781Z,1037.2948
2019-05-14T04:15:43.009Z,1037.3179
2019-05-14T04:17:04.589Z,1037.2293
2019-05-14T04:17:54.261Z,1037.3277
2019-05-14T04:18:53.478Z,1037.2344
2019-05-14T04:19:52.729Z,1037.2851
2019-05-14T04:20:04.572Z,1037.2835
2019-05-14T04:21:03.805Z,1037.2719
2019-05-14T04:22:03.036Z,1037.2788
2019-05-14T04:23:14.127Z,1037.2687
2019-05-14T04:24:13.368Z,1037.2542
2019-05-14T04:25:24.433Z,1037.233
2019-05-14T04:26:23.648Z,1037.2459
2019-05-14T04:27:22.868Z,1037.2102
2019-05-14T04:27:34.712Z,1037.2609
2019-05-14T04:28:33.926Z,1037.2578
2019-05-14T04:29:33.168Z,1037.2169
2019-05-14T04:30:44.206Z,1037.2596
2019-05-14T04:31:43.422Z,1037.2431
2019-05-14T04:32:42.710Z,1037.2055
2019-05-14T04:32:54.503Z,1037.2659
2019-05-14T04:33:53.757Z,1037.2644
2019-05-14T04:34:52.974Z,1037.2695
2019-05-14T04:36:04.033Z,1037.2136
2019-05-14T04:37:03.270Z,1037.2137
2019-05-14T04:38:14.466Z,1037.2563
2019-05-14T04:39:13.674Z,1037.2301
2019-05-14T04:40:12.900Z,1037.2219
2019-05-14T04:41:23.965Z,1037.2646
2019-05-14T04:42:23.179Z,1037.2008
2019-05-14T04:43:34.276Z,1037.1975
2019-05-14T04:44:33.490Z,1037.173
2019-05-14T04:45:32.686Z,1037.1585
2019-05-14T04:45:44.532Z,1037.1765
2019-05-14T04:46:43.762Z,1037.1519
2019-05-14T04:47:42.963Z,1037.1569
2019-05-14T04:48:53.981Z,1037.1422
2019-05-14T04:49:53.210Z,1037.1616
2019-05-14T04:51:04.287Z,1037.1435
2019-05-14T04:52:03.497Z,1037.1845
2019-05-14T04:53:03.711Z,1037.1226
2019-05-14T04:54:02.951Z,1037.1127
2019-05-14T04:55:14.007Z,1037.1354
2019-05-14T04:56:13.219Z,1037.1665
2019-05-14T04:57:25.551Z,1037.1075
2019-05-14T04:58:12.645Z,1037.1271
2019-05-14T04:58:24.490Z,1037.1109
2019-05-14T04:59:23.740Z,1037.1517
2019-05-14T05:00:22.976Z,1037.1372
2019-05-14T05:01:34.036Z,1037.0866
2019-05-14T05:02:33.235Z,1037.0977
2019-05-14T05:03:44.292Z,1037.0961
2019-05-14T05:04:43.520Z,1037.1221
2019-05-14T05:05:43.715Z,1037.1761
2019-05-14T05:06:42.921Z,1037.1499
2019-05-14T05:07:54.065Z,1037.1546
2019-05-14T05:08:53.320Z,1037.13
2019-05-14T05:10:04.354Z,1037.1267
2019-05-14T05:11:03.566Z,1037.1411
2019-05-14T05:12:02.751Z,1037.1639
2019-05-14T05:12:14.593Z,1037.1082
2019-05-14T05:13:13.822Z,1037.1263
2019-05-14T05:14:13.093Z,1037.1408
2019-05-14T05:15:24.131Z,1037.1538
2019-05-14T05:16:24.323Z,1037.1605
2019-05-14T05:17:12.676Z,1037.2014
2019-05-14T05:17:39.672Z,1037.2045
2019-05-14T05:18:12.852Z,1037.2047
2019-05-14T05:18:24.690Z,1037.2521
2019-05-14T05:19:23.921Z,1037.2208
2019-05-14T05:20:23.125Z,1037.2436
2019-05-14T05:21:34.180Z,1037.2777
2019-05-14T05:22:33.054Z,1037.2969
2019-05-14T05:23:44.182Z,1037.2769
2019-05-14T05:24:43.400Z,1037.3197
2019-05-14T05:25:42.605Z,1037.283
2019-05-14T05:25:54.454Z,1037.2879
2019-05-14T05:26:53.652Z,1037.3221
2019-05-14T05:27:56.013Z,1037.2991
2019-05-14T05:29:03.462Z,1037.3218
2019-05-14T05:29:53.299Z,1037.322
2019-05-14T05:31:04.355Z,1037.3448
2019-05-14T05:32:04.149Z,1037.3743
2019-05-14T05:33:04.233Z,1037.379
2019-05-14T05:34:03.435Z,1037.4262
2019-05-14T05:35:02.666Z,1037.403
2019-05-14T05:35:14.509Z,1037.4078
2019-05-14T05:36:13.742Z,1037.434
2019-05-14T05:37:12.976Z,1037.4418
2019-05-14T05:38:24.032Z,1037.4681
2019-05-14T05:39:23.221Z,1037.4708
2019-05-14T05:40:34.272Z,1037.5065
2019-05-14T05:41:33.643Z,1037.4421
2019-05-14T05:42:32.871Z,1037.4564
2019-05-14T05:42:44.718Z,1037.4743
2019-05-14T05:43:43.917Z,1037.5087
2019-05-14T05:44:43.113Z,1037.4575
2019-05-14T05:45:54.173Z,1037.4406
2019-05-14T05:46:53.425Z,1037.4301
2019-05-14T05:47:57.317Z,1037.4282
2019-05-14T05:48:53.241Z,1037.4163
2019-05-14T05:50:04.386Z,1037.3732
2019-05-14T05:51:03.701Z,1037.4057
2019-05-14T05:52:02.986Z,1037.4067
2019-05-14T05:53:14.257Z,1037.3896
2019-05-14T05:54:13.493Z,1037.3103
2019-05-14T05:55:12.742Z,1037.3688
2019-05-14T05:55:24.583Z,1037.3656
2019-05-14T05:56:23.899Z,1037.3718
2019-05-14T05:57:24.255Z,1037.353
2019-05-14T05:58:23.653Z,1037.3707
2019-05-14T05:59:22.941Z,1037.3798
2019-05-14T06:00:34.009Z,1037.3922
2019-05-14T06:01:42.720Z,1037.4475
2019-05-14T06:02:33.751Z,1037.4519
2019-05-14T06:03:33.090Z,1037.4313
2019-05-14T06:04:43.572Z,1037.4538
2019-05-14T06:05:42.909Z,1037.4992
2019-05-14T06:06:54.265Z,1037.4427
2019-05-14T06:07:53.641Z,1037.3929
2019-05-14T06:08:52.966Z,1037.4166
2019-05-14T06:10:04.145Z,1037.4862
2019-05-14T06:11:03.489Z,1037.4393
2019-05-14T06:12:02.898Z,1037.4213
2019-05-14T06:13:03.177Z,1037.4324
2019-05-14T06:14:14.440Z,1037.4239
2019-05-14T06:15:14.443Z,1037.3988
2019-05-14T06:16:13.287Z,1037.479
2019-05-14T06:17:12.666Z,1037.4344
2019-05-14T06:17:24.509Z,1037.3472
2019-05-14T06:18:23.800Z,1037.4211
2019-05-14T06:19:23.073Z,1037.4473
2019-05-14T06:20:34.281Z,1037.4456
2019-05-14T06:21:33.515Z,1037.4351
2019-05-14T06:22:32.812Z,1037.3936
2019-05-14T06:22:44.649Z,1037.4022
2019-05-14T06:23:44.081Z,1037.4526
2019-05-14T06:24:43.345Z,1037.4953
2019-05-14T06:25:42.603Z,1037.4541
2019-05-14T06:25:54.463Z,1037.4803
2019-05-14T06:26:53.810Z,1037.5211
2019-05-14T06:27:54.184Z,1037.5061
2019-05-14T06:28:53.665Z,1037.5139
2019-05-14T06:29:54.442Z,1037.538
2019-05-14T06:30:53.329Z,1037.5574
2019-05-14T06:31:52.766Z,1037.5227
2019-05-14T06:32:04.633Z,1037.5241
2019-05-14T06:33:04.230Z,1037.5209
2019-05-14T06:34:03.604Z,1037.5289
2019-05-14T06:35:03.038Z,1037.519
2019-05-14T06:36:14.679Z,1037.5742
2019-05-14T06:37:13.394Z,1037.5362
2019-05-14T06:38:12.648Z,1037.5358
2019-05-14T06:38:24.520Z,1037.5291
2019-05-14T06:39:23.813Z,1037.5255
2019-05-14T06:40:23.047Z,1037.5859
2019-05-14T06:41:34.094Z,1037.4931
2019-05-14T06:42:33.316Z,1037.5305
2019-05-14T06:43:44.555Z,1037.5186
2019-05-14T06:44:44.335Z,1037.5411
2019-05-14T06:45:43.598Z,1037.5112
2019-05-14T06:46:42.819Z,1037.5654
2019-05-14T06:46:54.686Z,1037.5753
2019-05-14T06:47:43.051Z,1037.5507
2019-05-14T06:48:42.685Z,1037.5538
2019-05-14T06:48:54.526Z,1037.5786
2019-05-14T06:49:53.804Z,1037.6093
2019-05-14T06:50:53.042Z,1037.5828
2019-05-14T06:52:04.121Z,1037.6248
2019-05-14T06:53:04.353Z,1037.6343
2019-05-14T06:54:03.574Z,1037.609
2019-05-14T06:55:02.838Z,1037.64
2019-05-14T06:55:14.705Z,1037.663
2019-05-14T06:56:03.278Z,1037.6741
2019-05-14T06:57:14.408Z,1037.6212
2019-05-14T06:58:02.774Z,1037.708
2019-05-14T06:58:14.622Z,1037.7209
2019-05-14T06:59:13.848Z,1037.6954
2019-05-14T07:00:13.091Z,1037.6965
2019-05-14T07:01:12.761Z,1037.7238
2019-05-14T07:01:24.596Z,1037.7021
2019-05-14T07:02:23.854Z,1037.7412
2019-05-14T07:03:23.217Z,1037.7392
2019-05-14T07:04:34.310Z,1037.6878
2019-05-14T07:05:33.604Z,1037.7387
2019-05-14T07:06:32.865Z,1037.7701
2019-05-14T07:07:43.975Z,1037.7071
2019-05-14T07:08:43.204Z,1037.6538
2019-05-14T07:09:54.264Z,1037.691
2019-05-14T07:10:53.473Z,1037.7384
2019-05-14T07:11:52.721Z,1037.6142
2019-05-14T07:12:04.555Z,1037.65
2019-05-14T07:12:52.927Z,1037.6677
2019-05-14T07:13:53.136Z,1037.7427
2019-05-14T07:15:04.207Z,1037.7205
2019-05-14T07:16:03.436Z,1037.7149
2019-05-14T07:17:02.787Z,1037.7497
2019-05-14T07:17:14.637Z,1037.7414
2019-05-14T07:18:13.870Z,1037.6688
2019-05-14T07:19:15.617Z,1037.7231
2019-05-14T07:20:14.288Z,1037.726
2019-05-14T07:21:02.632Z,1037.6878
2019-05-14T07:21:14.507Z,1037.7027
2019-05-14T07:23:13.949Z,1037.6619
2019-05-14T07:24:13.185Z,1037.663
2019-05-14T07:25:24.231Z,1037.5653
2019-05-14T07:26:23.485Z,1037.4985
2019-05-14T07:27:22.682Z,1037.4515
2019-05-14T07:27:34.529Z,1037.4927
2019-05-14T07:28:33.744Z,1037.4343
2019-05-14T07:29:33.011Z,1037.4797
2019-05-14T07:30:44.130Z,1037.4823
2019-05-14T07:31:43.354Z,1037.4715
2019-05-14T07:32:54.412Z,1037.3703
2019-05-14T07:33:53.601Z,1037.3614
2019-05-14T07:34:52.794Z,1037.3265
2019-05-14T07:35:04.638Z,1037.3314
2019-05-14T07:36:03.900Z,1037.3129
2019-05-14T07:37:03.134Z,1037.3571
2019-05-14T07:38:14.195Z,1037.3795
2019-05-14T07:39:13.442Z,1037.3977
2019-05-14T07:40:12.649Z,1037.4167
2019-05-14T07:40:24.488Z,1037.4165
2019-05-14T07:41:23.694Z,1037.3695
2019-05-14T07:42:22.919Z,1037.3436
2019-05-14T07:43:33.985Z,1037.4135
2019-05-14T07:44:33.189Z,1037.4124
2019-05-14T07:45:33.611Z,1037.4085
2019-05-14T07:46:32.618Z,1037.4786
2019-05-14T07:46:44.452Z,1037.4803
2019-05-14T07:47:43.630Z,1037.4649
2019-05-14T07:48:42.849Z,1037.4
2019-05-14T07:49:05.087Z,1037.4378
2019-05-14T07:49:43.071Z,1037.4442
2019-05-14T07:50:54.135Z,1037.3726
2019-05-14T07:51:53.382Z,1037.3156
2019-05-14T07:52:52.605Z,1037.2976
2019-05-14T07:53:04.488Z,1037.3433
2019-05-14T07:53:52.844Z,1037.3471
2019-05-14T07:55:04.033Z,1037.3526
2019-05-14T07:56:03.249Z,1037.2794
2019-05-14T07:57:14.310Z,1037.343
2019-05-14T07:58:13.534Z,1037.3753
2019-05-14T07:59:12.792Z,1037.3679
2019-05-14T07:59:24.633Z,1037.3265
2019-05-14T08:00:24.124Z,1037.3323
2019-05-14T08:01:23.343Z,1037.2962
2019-05-14T08:02:34.409Z,1037.3012
2019-05-14T08:03:33.707Z,1037.3071
2019-05-14T08:04:33.022Z,1037.275
2019-05-14T08:05:44.263Z,1037.3193
2019-05-14T08:06:43.589Z,1037.369
2019-05-14T08:07:42.794Z,1037.3117
2019-05-14T08:07:54.634Z,1037.3012
2019-05-14T08:08:42.626Z,1037.2728
2019-05-14T08:08:54.471Z,1037.2821
2019-05-14T08:09:53.793Z,1037.2427
2019-05-14T08:10:53.233Z,1037.2398
2019-05-14T08:12:04.336Z,1037.1817
2019-05-14T08:13:03.636Z,1037.2032
2019-05-14T08:14:02.880Z,1037.2467
2019-05-14T08:15:18.782Z,1037.2447
2019-05-14T08:16:02.628Z,1037.2238
2019-05-14T08:16:14.517Z,1037.2351
2019-05-14T08:17:13.742Z,1037.2208
2019-05-14T08:18:14.417Z,1037.2113
2019-05-14T08:19:24.042Z,1037.2369
2019-05-14T08:20:13.465Z,1037.216
2019-05-14T08:21:13.754Z,1037.2325
2019-05-14T08:22:13.120Z,1037.2404
2019-05-14T08:23:24.338Z,1037.196
2019-05-14T08:24:26.932Z,1037.2077
2019-05-14T08:25:24.361Z,1037.2069
2019-05-14T08:26:23.604Z,1037.1607
2019-05-14T08:27:27.829Z,1037.1549
2019-05-14T08:28:23.055Z,1037.1712
2019-05-14T08:29:36.812Z,1037.1535
2019-05-14T08:30:34.374Z,1037.1741
2019-05-14T08:31:33.644Z,1037.1875
2019-05-14T08:32:33.025Z,1037.207
2019-05-14T08:33:44.097Z,1037.2263
2019-05-14T08:34:43.301Z,1037.2365
2019-05-14T08:35:54.337Z,1037.208
2019-05-14T08:36:53.557Z,1037.2164
2019-05-14T08:38:04.539Z,1037.1558
2019-05-14T08:38:52.977Z,1037.1845
2019-05-14T08:40:04.040Z,1037.1217
2019-05-14T08:41:03.254Z,1037.1953
2019-05-14T08:42:14.344Z,1037.177
2019-05-14T08:43:13.587Z,1037.1483
2019-05-14T08:44:12.777Z,1037.1821
2019-05-14T08:44:24.624Z,1037.1846
2019-05-14T08:45:13.753Z,1037.2252
2019-05-14T08:46:13.202Z,1037.1904
2019-05-14T08:47:24.304Z,1037.2133
2019-05-14T08:48:23.543Z,1037.194
2019-05-14T08:49:37.537Z,1037.163
2019-05-14T08:50:22.972Z,1037.1192
2019-05-14T08:51:34.041Z,1037.0401
2019-05-14T08:52:33.291Z,1037.0916
2019-05-14T08:53:44.381Z,1036.9637
2019-05-14T08:54:43.594Z,1036.958
2019-05-14T08:55:42.803Z,1036.9694
2019-05-14T08:55:54.648Z,1036.9711
2019-05-14T08:56:53.924Z,1036.9609
2019-05-14T08:57:54.285Z,1036.9251
2019-05-14T08:58:53.461Z,1036.8991
2019-05-14T08:59:52.689Z,1036.8846
2019-05-14T09:00:04.550Z,1036.8925
2019-05-14T09:01:03.836Z,1036.8433
2019-05-14T09:02:06.462Z,1036.7958
2019-05-14T09:03:03.416Z,1036.7926
2019-05-14T09:04:02.599Z,1036.8214
2019-05-14T09:04:14.462Z,1036.7783
2019-05-14T09:05:13.804Z,1036.8332
2019-05-14T09:06:13.037Z,1036.7907
2019-05-14T09:07:24.179Z,1036.793
2019-05-14T09:08:23.429Z,1036.8109
2019-05-14T09:09:22.681Z,1036.7923
2019-05-14T09:09:34.523Z,1036.7607
2019-05-14T09:10:33.762Z,1036.7431
2019-05-14T09:11:35.270Z,1036.7308
2019-05-14T09:12:34.350Z,1036.7716
2019-05-14T09:13:33.568Z,1036.7069
2019-05-14T09:14:32.809Z,1036.7526
2019-05-14T09:14:44.658Z,1036.8011
2019-05-14T09:15:43.908Z,1036.7333
2019-05-14T09:16:47.521Z,1036.744
2019-05-14T09:17:43.368Z,1036.7254
2019-05-14T09:18:42.601Z,1036.7397
2019-05-14T09:18:54.460Z,1036.726
2019-05-14T09:20:01.324Z,1036.6892
2019-05-14T09:20:53.885Z,1036.6429
2019-05-14T09:21:53.147Z,1036.6887
2019-05-14T09:23:04.250Z,1036.7006
2019-05-14T09:24:03.444Z,1036.726
2019-05-14T09:25:02.666Z,1036.617
2019-05-14T09:25:14.518Z,1036.7375
2019-05-14T09:26:13.835Z,1036.665
2019-05-14T09:27:13.035Z,1036.6517
2019-05-14T09:28:24.107Z,1036.6186
2019-05-14T09:29:25.955Z,1036.6538
2019-05-14T09:30:23.522Z,1036.6064
2019-05-14T09:31:22.712Z,1036.6253
2019-05-14T09:31:34.552Z,1036.6315
2019-05-14T09:32:33.773Z,1036.5878
2019-05-14T09:33:32.978Z,1036.5543
2019-05-14T09:34:44.024Z,1036.6066
2019-05-14T09:35:43.227Z,1036.5955
2019-05-14T09:36:54.307Z,1036.5461
2019-05-14T09:37:53.536Z,1036.5548
2019-05-14T09:38:52.817Z,1036.5766
2019-05-14T09:39:04.660Z,1036.5646
2019-05-14T09:40:03.859Z,1036.4897
2019-05-14T09:41:10.486Z,1036.5441
2019-05-14T09:42:03.424Z,1036.5207
2019-05-14T09:43:02.638Z,1036.5035
2019-05-14T09:43:14.478Z,1036.4938
2019-05-14T09:44:13.715Z,1036.5463
2019-05-14T09:45:13.918Z,1036.5493
2019-05-14T09:46:13.141Z,1036.5239
2019-05-14T09:47:24.216Z,1036.5673
2019-05-14T09:48:23.469Z,1036.5744
2019-05-14T09:49:23.697Z,1036.5112
2019-05-14T09:50:23.699Z,1036.5421
2019-05-14T09:51:23.094Z,1036.519
2019-05-14T09:52:34.191Z,1036.5223
2019-05-14T09:53:33.421Z,1036.5584
2019-05-14T09:54:32.667Z,1036.5178
2019-05-14T09:54:44.526Z,1036.446
2019-05-14T09:55:43.895Z,1036.4543
2019-05-14T09:56:43.108Z,1036.472
2019-05-14T09:57:54.194Z,1036.3757
2019-05-14T09:58:53.437Z,1036.3924
2019-05-14T09:59:52.694Z,1036.3073
2019-05-14T10:00:04.539Z,1036.3066
2019-05-14T10:01:03.755Z,1036.324
2019-05-14T10:02:02.953Z,1036.3432
2019-05-14T10:03:14.141Z,1036.3266
2019-05-14T10:04:13.388Z,1036.3665
2019-05-14T10:05:12.626Z,1036.3736
2019-05-14T10:05:24.466Z,1036.4035
2019-05-14T10:06:23.726Z,1036.3687
2019-05-14T10:07:22.942Z,1036.3616
2019-05-14T10:08:34.022Z,1036.3292
2019-05-14T10:09:33.278Z,1036.2847
2019-05-14T10:10:44.354Z,1036.2442
2019-05-14T10:11:43.581Z,1036.2137
2019-05-14T10:12:52.340Z,1036.1722
2019-05-14T10:13:43.015Z,1036.1451
2019-05-14T10:14:54.114Z,1036.1071
2019-05-14T10:15:53.374Z,1036.1199
2019-05-14T10:16:52.630Z,1036.1073
2019-05-14T10:17:04.478Z,1036.1264
2019-05-14T10:18:03.741Z,1036.0776
2019-05-14T10:19:03.004Z,1036.0799
2019-05-14T10:20:14.111Z,1036.0585
2019-05-14T10:21:13.319Z,1036.0035
2019-05-14T10:22:24.414Z,1035.9833
2019-05-14T10:23:23.660Z,1036.0261
2019-05-14T10:24:22.881Z,1036.0634
2019-05-14T10:25:33.932Z,1036.0888
2019-05-14T10:26:33.352Z,1036.0468
2019-05-14T10:27:44.411Z,1036.0977
2019-05-14T10:28:32.755Z,1036.0473
2019-05-14T10:28:44.594Z,1036.044
2019-05-14T10:29:43.796Z,1036.0731
2019-05-14T10:30:43.043Z,1036.0344
2019-05-14T10:31:54.171Z,1036.061
2019-05-14T10:32:53.436Z,1036.0448
2019-05-14T10:33:52.770Z,1036.0723
2019-05-14T10:34:04.613Z,1036.0628
2019-05-14T10:35:03.825Z,1036.0566
2019-05-14T10:36:03.047Z,1036.0529
2019-05-14T10:37:14.176Z,1036.0144
2019-05-14T10:38:13.399Z,1035.9842
2019-05-14T10:39:12.629Z,1035.9614